Time,TemperatureF,DewpointF,PressureIn,WindDirection,WindDirectionDegrees,WindSpeedMPH,WindSpeedGustMPH,Humidity,HourlyPrecipIn,Conditions,Clouds,dailyrainin,SoftwareType,DateUTC
2013-07-02 00:11:00,66.0,65.7,29.96,South,180,0.0,-999.0,99,-99.99,,,0.00,Acu-Link.com,2013-07-02 04:11:00,
2013-07-02 00:26:00,65.8,65.5,29.96,ESE,112,0.0,-999.0,99,-99.99,,,0.00,Acu-Link.com,2013-07-02 04:26:00,
2013-07-02 00:41:00,65.7,65.4,29.96,ESE,112,0.0,-999.0,99,-99.99,,,0.00,Acu-Link.com,2013-07-02 04:41:00,
2013-07-02 00:56:00,65.7,65.4,29.97,ESE,112,0.0,-999.0,99,-99.99,,,0.00,Acu-Link.com,2013-07-02 04:56:00,
2013-07-02 01:12:00,65.7,65.4,29.96,South,180,0.0,-999.0,99,-99.99,,,0.00,Acu-Link.com,2013-07-02 05:12:00,
2013-07-02 01:27:00,65.7,65.4,29.96,WSW,247,0.0,-999.0,99,-99.99,,,0.00,Acu-Link.com,2013-07-02 05:27:00,
2013-07-02 01:42:00,65.5,65.2,29.96,ESE,112,2.2,-999.0,99,-99.99,,,0.00,Acu-Link.com,2013-07-02 05:42:00,
2013-07-02 01:57:00,65.5,65.2,29.96,ESE,112,0.0,-999.0,99,-99.99,,,0.00,Acu-Link.com,2013-07-02 05:57:00,
2013-07-02 02:12:00,65.3,65.0,29.96,NE,45,1.7,-999.0,99,-99.99,,,0.00,Acu-Link.com,2013-07-02 06:12:00,
2013-07-02 02:28:00,65.1,64.8,29.96,SE,135,0.0,-999.0,99,-99.99,,,0.00,Acu-Link.com,2013-07-02 06:28:00,
2013-07-02 02:43:00,65.1,64.8,29.96,ESE,112,2.2,-999.0,99,-99.99,,,0.00,Acu-Link.com,2013-07-02 06:43:00,
2013-07-02 02:58:00,64.9,64.6,29.96,SE,135,1.7,-999.0,99,-99.99,,,0.00,Acu-Link.com,2013-07-02 06:58:00,
2013-07-02 03:13:00,64.9,64.6,29.95,ESE,112,1.7,-999.0,99,-99.99,,,0.00,Acu-Link.com,2013-07-02 07:13:00,
2013-07-02 03:28:00,64.9,64.6,29.96,ESE,112,0.0,-999.0,99,-99.99,,,0.00,Acu-Link.com,2013-07-02 07:28:00,
2013-07-02 03:44:00,64.9,64.6,29.96,ESE,112,0.0,-999.0,99,-99.99,,,0.00,Acu-Link.com,2013-07-02 07:44:00,
2013-07-02 03:59:00,64.9,64.6,29.96,ESE,112,0.0,-999.0,99,-99.99,,,0.00,Acu-Link.com,2013-07-02 07:59:00,
2013-07-02 04:15:00,64.9,64.6,29.96,ESE,112,1.7,-999.0,99,-99.99,,,0.00,Acu-Link.com,2013-07-02 08:15:00,
2013-07-02 04:30:00,64.8,64.5,29.97,SSW,202,1.7,-999.0,99,-99.99,,,0.00,Acu-Link.com,2013-07-02 08:30:00,
2013-07-02 04:45:00,64.8,64.5,29.97,ENE,67,0.0,-999.0,99,-99.99,,,0.00,Acu-Link.com,2013-07-02 08:45:00,
2013-07-02 05:00:00,64.6,64.3,29.98,ESE,112,2.7,-999.0,99,-99.99,,,0.00,Acu-Link.com,2013-07-02 09:00:00,
2013-07-02 05:15:00,64.6,64.3,29.98,SE,135,1.7,-999.0,99,-99.99,,,0.00,Acu-Link.com,2013-07-02 09:15:00,
2013-07-02 05:31:00,64.4,64.1,29.98,SE,135,0.0,-999.0,99,-99.99,,,0.00,Acu-Link.com,2013-07-02 09:31:00,
2013-07-02 05:46:00,64.4,64.1,29.99,WSW,247,1.1,-999.0,99,-99.99,,,0.00,Acu-Link.com,2013-07-02 09:46:00,
2013-07-02 06:01:00,64.6,64.3,30.00,NW,315,0.0,-999.0,99,-99.99,,,0.00,Acu-Link.com,2013-07-02 10:01:00,
2013-07-02 06:17:00,64.6,64.3,29.99,SW,225,0.0,-999.0,99,-99.99,,,0.00,Acu-Link.com,2013-07-02 10:17:00,
2013-07-02 06:32:00,64.6,64.3,30.00,South,180,1.7,-999.0,99,-99.99,,,0.00,Acu-Link.com,2013-07-02 10:32:00,
2013-07-02 06:47:00,64.9,64.6,30.01,NNW,337,0.0,-999.0,99,-99.99,,,0.00,Acu-Link.com,2013-07-02 10:47:00,
2013-07-02 07:03:00,65.5,65.2,30.00,WNW,292,0.0,-999.0,99,-99.99,,,0.00,Acu-Link.com,2013-07-02 11:03:00,
2013-07-02 07:18:00,65.7,65.4,30.01,NW,315,0.0,-999.0,99,-99.99,,,0.00,Acu-Link.com,2013-07-02 11:18:00,
2013-07-02 07:33:00,66.2,65.9,30.01,West,270,0.0,-999.0,99,-99.99,,,0.00,Acu-Link.com,2013-07-02 11:33:00,
2013-07-02 07:48:00,66.6,66.3,30.02,South,180,0.0,-999.0,99,-99.99,,,0.00,Acu-Link.com,2013-07-02 11:48:00,
2013-07-02 08:04:00,67.3,67.0,30.02,SSW,202,1.1,-999.0,99,-99.99,,,0.00,Acu-Link.com,2013-07-02 12:04:00,
2013-07-02 08:19:00,67.8,67.5,30.01,NNW,337,0.0,-999.0,99,-99.99,,,0.00,Acu-Link.com,2013-07-02 12:19:00,
2013-07-02 08:34:00,68.0,67.7,30.03,West,270,2.2,-999.0,99,-99.99,,,0.00,Acu-Link.com,2013-07-02 12:34:00,
2013-07-02 08:49:00,68.4,68.1,30.04,SW,225,0.0,-999.0,99,-99.99,,,0.00,Acu-Link.com,2013-07-02 12:49:00,
2013-07-02 09:05:00,68.7,68.4,30.04,SSW,202,2.7,-999.0,99,-99.99,,,0.00,Acu-Link.com,2013-07-02 13:05:00,
2013-07-02 09:20:00,69.3,69.0,30.04,SSW,202,2.2,-999.0,99,-99.99,,,0.00,Acu-Link.com,2013-07-02 13:20:00,
2013-07-02 09:35:00,70.7,70.4,30.04,NNE,22,2.2,-999.0,99,-99.99,,,0.00,Acu-Link.com,2013-07-02 13:35:00,
2013-07-02 09:50:00,70.9,70.6,30.04,WSW,247,0.0,-999.0,99,-99.99,,,0.00,Acu-Link.com,2013-07-02 13:50:00,
2013-07-02 10:05:00,70.9,70.6,30.06,South,180,3.7,-999.0,99,-99.99,,,0.00,Acu-Link.com,2013-07-02 14:05:00,
2013-07-02 10:21:00,71.8,71.5,30.05,North,0,2.2,-999.0,99,-99.99,,,0.00,Acu-Link.com,2013-07-02 14:21:00,
2013-07-02 10:36:00,72.3,71.7,30.05,West,270,3.7,-999.0,98,-99.99,,,0.00,Acu-Link.com,2013-07-02 14:36:00,
2013-07-02 10:51:00,73.9,72.1,30.05,NNE,22,2.7,-999.0,94,-99.99,,,0.00,Acu-Link.com,2013-07-02 14:51:00,
2013-07-02 11:06:00,73.4,71.6,30.06,WSW,247,1.1,-999.0,94,-99.99,,,0.00,Acu-Link.com,2013-07-02 15:06:00,
2013-07-02 11:22:00,75.7,72.6,30.06,SE,135,3.2,-999.0,90,-99.99,,,0.00,Acu-Link.com,2013-07-02 15:22:00,
2013-07-02 11:37:00,77.5,73.3,30.06,SSE,157,2.7,-999.0,87,-99.99,,,0.00,Acu-Link.com,2013-07-02 15:37:00,
2013-07-02 11:53:00,76.5,72.3,30.06,SW,225,1.1,-999.0,87,-99.99,,,0.00,Acu-Link.com,2013-07-02 15:53:00,
2013-07-02 12:09:00,73.9,72.7,30.06,SSE,157,1.1,-999.0,96,-99.99,,,0.00,Acu-Link.com,2013-07-02 16:09:00,
2013-07-02 12:24:00,72.5,72.2,30.07,West,270,1.7,-999.0,99,-99.99,,,0.00,Acu-Link.com,2013-07-02 16:24:00,
2013-07-02 12:42:00,72.0,71.4,30.06,West,270,2.2,-999.0,98,-99.99,,,0.00,Acu-Link.com,2013-07-02 16:42:00,
2013-07-02 12:57:00,73.0,71.5,30.06,NNE,22,2.2,-999.0,95,-99.99,,,0.00,Acu-Link.com,2013-07-02 16:57:00,
2013-07-02 13:13:00,71.6,71.0,30.07,West,270,1.7,-999.0,98,-99.99,,,0.01,Acu-Link.com,2013-07-02 17:13:00,
2013-07-02 13:59:00,68.7,68.4,30.08,South,180,1.1,-999.0,99,-99.99,,,0.01,Acu-Link.com,2013-07-02 17:59:00,
2013-07-02 14:14:00,69.1,68.8,30.07,WNW,292,0.0,-999.0,99,-99.99,,,0.04,Acu-Link.com,2013-07-02 18:14:00,
2013-07-02 14:30:00,70.2,69.9,30.06,NNW,337,0.0,-999.0,99,-99.99,,,0.04,Acu-Link.com,2013-07-02 18:30:00,
2013-07-02 14:45:00,72.9,72.6,30.06,NE,45,0.0,-999.0,99,-99.99,,,0.04,Acu-Link.com,2013-07-02 18:45:00,
2013-07-02 15:00:00,73.9,73.6,30.06,WSW,247,2.2,-999.0,99,-99.99,,,0.04,Acu-Link.com,2013-07-02 19:00:00,
2013-07-02 15:15:00,73.6,73.3,30.06,NW,315,1.7,-999.0,99,-99.99,,,0.04,Acu-Link.com,2013-07-02 19:15:00,
2013-07-02 15:31:00,74.1,73.5,30.06,WNW,292,2.7,-999.0,98,-99.99,,,0.04,Acu-Link.com,2013-07-02 19:31:00,
2013-07-02 15:46:00,74.8,73.9,30.05,WNW,292,2.7,-999.0,97,-99.99,,,0.04,Acu-Link.com,2013-07-02 19:46:00,
2013-07-02 16:01:00,74.5,73.6,30.05,WNW,292,0.0,-999.0,97,-99.99,,,0.04,Acu-Link.com,2013-07-02 20:01:00,
2013-07-02 16:16:00,75.9,73.4,30.05,WSW,247,2.7,-999.0,92,-99.99,,,0.04,Acu-Link.com,2013-07-02 20:16:00,
2013-07-02 16:31:00,76.3,74.4,30.05,West,270,4.7,-999.0,94,-99.99,,,0.04,Acu-Link.com,2013-07-02 20:31:00,
2013-07-02 16:47:00,76.8,73.6,30.05,West,270,1.1,-999.0,90,-99.99,,,0.04,Acu-Link.com,2013-07-02 20:47:00,
2013-07-02 17:02:00,76.3,73.5,30.05,SSE,157,3.7,-999.0,91,-99.99,,,0.04,Acu-Link.com,2013-07-02 21:02:00,
2013-07-02 17:17:00,76.3,74.8,30.05,West,270,2.2,-999.0,95,-99.99,,,0.04,Acu-Link.com,2013-07-02 21:17:00,
2013-07-02 17:32:00,76.5,73.7,30.06,WSW,247,2.2,-999.0,91,-99.99,,,0.04,Acu-Link.com,2013-07-02 21:32:00,
2013-07-02 17:47:00,77.4,73.9,30.06,WNW,292,1.7,-999.0,89,-99.99,,,0.04,Acu-Link.com,2013-07-02 21:47:00,
2013-07-02 18:03:00,75.4,74.2,30.06,South,180,1.1,-999.0,96,-99.99,,,0.04,Acu-Link.com,2013-07-02 22:03:00,
2013-07-02 18:18:00,75.9,72.4,30.06,NNE,22,3.7,-999.0,89,-99.99,,,0.04,Acu-Link.com,2013-07-02 22:18:00,
2013-07-02 18:33:00,76.3,72.8,30.06,WSW,247,2.7,-999.0,89,-99.99,,,0.04,Acu-Link.com,2013-07-02 22:33:00,
2013-07-02 18:48:00,76.6,72.8,30.07,SW,225,1.7,-999.0,88,-99.99,,,0.04,Acu-Link.com,2013-07-02 22:48:00,
2013-07-02 19:03:00,77.5,73.3,30.08,South,180,2.7,-999.0,87,-99.99,,,0.04,Acu-Link.com,2013-07-02 23:03:00,
2013-07-02 19:19:00,77.5,73.3,30.08,ESE,112,2.2,-999.0,87,-99.99,,,0.04,Acu-Link.com,2013-07-02 23:19:00,
2013-07-02 19:34:00,77.0,73.2,30.07,SSE,157,3.7,-999.0,88,-99.99,,,0.04,Acu-Link.com,2013-07-02 23:34:00,
2013-07-02 19:49:00,75.6,72.8,30.07,NW,315,2.2,-999.0,91,-99.99,,,0.04,Acu-Link.com,2013-07-02 23:49:00,
2013-07-02 20:04:00,73.4,71.6,30.08,West,270,2.2,-999.0,94,-99.99,,,0.04,Acu-Link.com,2013-07-03 00:04:00,
2013-07-02 20:20:00,72.5,71.3,30.08,South,180,2.2,-999.0,96,-99.99,,,0.04,Acu-Link.com,2013-07-03 00:20:00,
2013-07-02 20:35:00,70.7,70.4,30.08,SW,225,2.2,-999.0,99,-99.99,,,0.04,Acu-Link.com,2013-07-03 00:35:00,
2013-07-02 20:50:00,69.6,69.3,30.09,SW,225,1.7,-999.0,99,-99.99,,,0.04,Acu-Link.com,2013-07-03 00:50:00,
2013-07-02 21:05:00,69.1,68.8,30.09,SSE,157,1.7,-999.0,99,-99.99,,,0.04,Acu-Link.com,2013-07-03 01:05:00,
2013-07-02 21:20:00,68.9,68.6,30.08,West,270,5.3,-999.0,99,-99.99,,,0.04,Acu-Link.com,2013-07-03 01:20:00,
2013-07-02 21:37:00,68.4,68.1,30.09,ENE,67,0.0,-999.0,99,-99.99,,,0.04,Acu-Link.com,2013-07-03 01:37:00,
2013-07-02 21:52:00,68.0,67.7,30.10,SE,135,3.7,-999.0,99,-99.99,,,0.04,Acu-Link.com,2013-07-03 01:52:00,
2013-07-02 22:07:00,67.5,67.2,30.11,South,180,2.2,-999.0,99,-99.99,,,0.04,Acu-Link.com,2013-07-03 02:07:00,
2013-07-02 22:22:00,67.3,67.0,30.11,NNE,22,2.2,-999.0,99,-99.99,,,0.04,Acu-Link.com,2013-07-03 02:22:00,
2013-07-02 22:38:00,67.5,67.2,30.11,West,270,0.0,-999.0,99,-99.99,,,0.04,Acu-Link.com,2013-07-03 02:38:00,
2013-07-02 23:08:00,66.6,66.3,30.11,WNW,292,0.0,-999.0,99,-99.99,,,0.04,Acu-Link.com,2013-07-03 03:08:00,
2013-07-02 23:23:00,66.4,66.1,30.11,ENE,67,0.0,-999.0,99,-99.99,,,0.04,Acu-Link.com,2013-07-03 03:23:00,
2013-07-02 23:38:00,66.6,66.3,30.12,NW,315,2.7,-999.0,99,-99.99,,,0.04,Acu-Link.com,2013-07-03 03:38:00,
2013-07-02 23:54:00,66.4,66.1,30.11,West,270,0.0,-999.0,99,-99.99,,,0.04,Acu-Link.com,2013-07-03 03:54:00,